sensor_id;sensor_type;location;lat;lon;timestamp;pressure;altitude;pressure_sealevel;temperature;humidity
49723;BME280;43484;43.608;1.458;2023-01-28T00:00:45;100006.91;;;3.12;100.00
49723;BME280;43484;43.608;1.458;2023-01-28T00:03:12;100012.69;;;3.09;100.00
49723;BME280;43484;43.608;1.458;2023-01-28T00:05:39;100006.91;;;3.12;100.00
49723;BME280;43484;43.608;1.458;2023-01-28T00:08:05;100001.75;;;3.10;100.00
49723;BME280;43484;43.608;1.458;2023-01-28T00:10:32;100014.22;;;3.07;100.00
49723;BME280;43484;43.608;1.458;2023-01-28T00:12:59;100012.69;;;3.09;100.00
49723;BME280;43484;43.608;1.458;2023-01-28T00:15:25;100018.72;;;3.11;100.00
49723;BME280;43484;43.608;1.458;2023-01-28T00:17:53;100012.59;;;3.08;100.00
49723;BME280;43484;43.608;1.458;2023-01-28T00:20:20;100015.28;;;3.11;100.00
49723;BME280;43484;43.608;1.458;2023-01-28T00:22:47;100014.31;;;3.09;100.00
49723;BME280;43484;43.608;1.458;2023-01-28T00:25:17;100020.25;;;3.09;100.00
49723;BME280;43484;43.608;1.458;2023-01-28T00:27:44;100026.31;;;3.11;100.00
49723;BME280;43484;43.608;1.458;2023-01-28T00:30:11;100027.78;;;3.08;100.00
49723;BME280;43484;43.608;1.458;2023-01-28T00:32:38;100034.47;;;3.07;100.00
49723;BME280;43484;43.608;1.458;2023-01-28T00:35:07;100024.16;;;3.04;100.00
49723;BME280;43484;43.608;1.458;2023-01-28T00:37:33;100027.38;;;3.02;100.00
49723;BME280;43484;43.608;1.458;2023-01-28T00:40:02;100024.84;;;3.02;100.00
49723;BME280;43484;43.608;1.458;2023-01-28T00:42:28;100021.63;;;3.04;100.00
49723;BME280;43484;43.608;1.458;2023-01-28T00:44:55;100025.16;;;3.06;100.00
49723;BME280;43484;43.608;1.458;2023-01-28T00:47:21;100021.63;;;3.04;100.00
49723;BME280;43484;43.608;1.458;2023-01-28T00:49:48;100012.50;;;3.06;100.00
49723;BME280;43484;43.608;1.458;2023-01-28T00:52:14;100008.09;;;3.04;100.00
49723;BME280;43484;43.608;1.458;2023-01-28T00:54:41;100010.44;;;3.01;100.00
49723;BME280;43484;43.608;1.458;2023-01-28T00:57:07;100023.09;;;3.01;100.00
49723;BME280;43484;43.608;1.458;2023-01-28T00:59:34;100023.00;;;2.99;100.00
49723;BME280;43484;43.608;1.458;2023-01-28T01:02:00;100033.13;;;2.99;100.00
49723;BME280;43484;43.608;1.458;2023-01-28T01:04:38;100038.97;;;2.98;100.00
49723;BME280;43484;43.608;1.458;2023-01-28T01:07:05;100040.72;;;2.99;100.00
49723;BME280;43484;43.608;1.458;2023-01-28T01:09:32;100051.81;;;3.01;100.00
49723;BME280;43484;43.608;1.458;2023-01-28T01:11:58;100043.25;;;2.99;100.00
49723;BME280;43484;43.608;1.458;2023-01-28T01:14:25;100055.41;;;3.05;100.00
49723;BME280;43484;43.608;1.458;2023-01-28T01:16:51;100049.28;;;3.01;100.00
49723;BME280;43484;43.608;1.458;2023-01-28T01:19:18;100048.13;;;2.96;100.00
49723;BME280;43484;43.608;1.458;2023-01-28T01:21:44;100045.38;;;2.93;100.00
49723;BME280;43484;43.608;1.458;2023-01-28T01:24:16;100042.28;;;2.97;100.00
49723;BME280;43484;43.608;1.458;2023-01-28T01:26:43;100052.88;;;2.92;100.00
49723;BME280;43484;43.608;1.458;2023-01-28T01:29:09;100039.47;;;2.93;100.00
49723;BME280;43484;43.608;1.458;2023-01-28T01:31:36;100033.34;;;2.89;100.00
49723;BME280;43484;43.608;1.458;2023-01-28T01:34:03;100045.91;;;2.88;100.00
49723;BME280;43484;43.608;1.458;2023-01-28T01:36:29;100046.38;;;2.95;100.00
49723;BME280;43484;43.608;1.458;2023-01-28T01:38:56;100048.97;;;2.97;100.00
49723;BME280;43484;43.608;1.458;2023-01-28T01:41:31;100047.72;;;2.90;100.00
49723;BME280;43484;43.608;1.458;2023-01-28T01:49:14;100060.00;;;2.97;100.00
49723;BME280;43484;43.608;1.458;2023-01-28T01:51:44;100063.00;;;2.92;100.00
49723;BME280;43484;43.608;1.458;2023-01-28T01:54:14;100064.78;;;2.93;100.00
49723;BME280;43484;43.608;1.458;2023-01-28T01:56:43;100072.38;;;2.93;100.00
49723;BME280;43484;43.608;1.458;2023-01-28T01:59:18;100081.88;;;2.97;100.00
49723;BME280;43484;43.608;1.458;2023-01-28T02:01:47;100085.09;;;2.94;100.00
49723;BME280;43484;43.608;1.458;2023-01-28T02:04:25;100085.19;;;2.96;100.00
49723;BME280;43484;43.608;1.458;2023-01-28T02:06:54;100087.72;;;2.96;100.00
49723;BME280;43484;43.608;1.458;2023-01-28T02:09:26;100083.47;;;2.95;100.00
49723;BME280;43484;43.608;1.458;2023-01-28T02:11:57;100083.56;;;2.96;100.00
49723;BME280;43484;43.608;1.458;2023-01-28T02:14:27;100094.44;;;2.95;100.00
49723;BME280;43484;43.608;1.458;2023-01-28T02:16:58;100103.88;;;2.98;100.00
49723;BME280;43484;43.608;1.458;2023-01-28T02:19:36;100118.47;;;3.02;100.00
49723;BME280;43484;43.608;1.458;2023-01-28T02:30:28;100147.38;;;2.92;100.00
49723;BME280;43484;43.608;1.458;2023-01-28T02:33:03;100159.94;;;2.91;100.00
49723;BME280;43484;43.608;1.458;2023-01-28T02:35:52;100169.34;;;2.93;100.00
49723;BME280;43484;43.608;1.458;2023-01-28T02:38:36;100168.13;;;3.00;100.00
49723;BME280;43484;43.608;1.458;2023-01-28T02:41:10;100167.16;;;2.98;100.00
49723;BME280;43484;43.608;1.458;2023-01-28T02:43:41;100174.22;;;2.90;100.00
49723;BME280;43484;43.608;1.458;2023-01-28T02:49:22;100179.28;;;2.90;100.00
49723;BME280;43484;43.608;1.458;2023-01-28T02:57:43;100199.53;;;2.90;100.00
49723;BME280;43484;43.608;1.458;2023-01-28T03:00:19;100196.44;;;2.94;100.00
49723;BME280;43484;43.608;1.458;2023-01-28T03:05:48;100213.44;;;2.97;100.00
49723;BME280;43484;43.608;1.458;2023-01-28T03:08:43;100221.91;;;2.97;100.00
49723;BME280;43484;43.608;1.458;2023-01-28T03:11:32;100231.38;;;3.00;100.00
49723;BME280;43484;43.608;1.458;2023-01-28T03:14:19;100251.50;;;2.98;100.00
49723;BME280;43484;43.608;1.458;2023-01-28T03:17:07;100251.50;;;2.98;100.00
49723;BME280;43484;43.608;1.458;2023-01-28T03:19:56;100256.00;;;3.02;100.00
49723;BME280;43484;43.608;1.458;2023-01-28T03:22:41;100263.38;;;2.99;100.00
49723;BME280;43484;43.608;1.458;2023-01-28T03:25:32;100266.81;;;3.00;100.00
49723;BME280;43484;43.608;1.458;2023-01-28T03:28:19;100272.63;;;2.99;100.00
49723;BME280;43484;43.608;1.458;2023-01-28T03:31:12;100280.91;;;2.96;100.00
49723;BME280;43484;43.608;1.458;2023-01-28T03:33:59;100274.25;;;2.98;100.00
49723;BME280;43484;43.608;1.458;2023-01-28T03:36:46;100265.81;;;2.98;100.00
49723;BME280;43484;43.608;1.458;2023-01-28T03:39:18;100266.81;;;3.00;100.00
49723;BME280;43484;43.608;1.458;2023-01-28T03:41:56;100272.53;;;2.97;100.00
49723;BME280;43484;43.608;1.458;2023-01-28T03:44:23;100267.19;;;2.93;100.00
49723;BME280;43484;43.608;1.458;2023-01-28T03:47:10;100280.81;;;2.95;100.00
49723;BME280;43484;43.608;1.458;2023-01-28T03:49:48;100283.09;;;2.92;100.00
49723;BME280;43484;43.608;1.458;2023-01-28T03:52:18;100286.16;;;2.99;100.00
49723;BME280;43484;43.608;1.458;2023-01-28T03:54:46;100287.72;;;2.97;100.00
49723;BME280;43484;43.608;1.458;2023-01-28T03:57:15;100293.31;;;2.93;100.00
49723;BME280;43484;43.608;1.458;2023-01-28T03:59:41;100295.19;;;2.96;100.00
49723;BME280;43484;43.608;1.458;2023-01-28T04:02:09;100297.16;;;3.00;100.00
49723;BME280;43484;43.608;1.458;2023-01-28T04:04:39;100302.88;;;2.97;100.00
49723;BME280;43484;43.608;1.458;2023-01-28T04:07:08;100311.03;;;2.93;100.00
49723;BME280;43484;43.608;1.458;2023-01-28T04:09:36;100309.28;;;2.92;100.00
49723;BME280;43484;43.608;1.458;2023-01-28T04:12:03;100303.69;;;2.96;100.00
49723;BME280;43484;43.608;1.458;2023-01-28T04:14:31;100303.56;;;2.95;100.00
49723;BME280;43484;43.608;1.458;2023-01-28T04:16:58;100304.53;;;2.97;100.00
49723;BME280;43484;43.608;1.458;2023-01-28T04:19:25;100308.50;;;2.93;100.00
49723;BME280;43484;43.608;1.458;2023-01-28T04:21:52;100310.84;;;2.90;100.00
49723;BME280;43484;43.608;1.458;2023-01-28T04:24:20;100313.00;;;2.97;100.00
49723;BME280;43484;43.608;1.458;2023-01-28T04:26:47;100316.34;;;2.96;100.00
49723;BME280;43484;43.608;1.458;2023-01-28T04:29:14;100318.75;;;2.95;100.00
49723;BME280;43484;43.608;1.458;2023-01-28T04:31:41;100318.75;;;2.95;100.00
49723;BME280;43484;43.608;1.458;2023-01-28T04:34:07;100322.34;;;2.98;100.00
49723;BME280;43484;43.608;1.458;2023-01-28T04:36:35;100325.56;;;2.96;100.00
49723;BME280;43484;43.608;1.458;2023-01-28T04:39:02;100328.97;;;2.96;100.00
49723;BME280;43484;43.608;1.458;2023-01-28T04:41:29;100329.53;;;2.92;100.00
49723;BME280;43484;43.608;1.458;2023-01-28T04:43:55;100332.06;;;2.92;100.00
49723;BME280;43484;43.608;1.458;2023-01-28T04:46:22;100338.22;;;2.96;100.00
49723;BME280;43484;43.608;1.458;2023-01-28T04:48:48;100326.13;;;2.92;100.00
49723;BME280;43484;43.608;1.458;2023-01-28T04:51:15;100329.34;;;2.89;100.00
49723;BME280;43484;43.608;1.458;2023-01-28T04:53:42;100337.81;;;2.90;100.00
49723;BME280;43484;43.608;1.458;2023-01-28T04:56:08;100325.63;;;2.84;100.00
49723;BME280;43484;43.608;1.458;2023-01-28T04:58:35;100324.09;;;2.86;100.00
49723;BME280;43484;43.608;1.458;2023-01-28T05:01:01;100329.44;;;2.91;100.00
49723;BME280;43484;43.608;1.458;2023-01-28T05:03:28;100330.69;;;2.84;100.00
49723;BME280;43484;43.608;1.458;2023-01-28T05:05:54;100317.16;;;2.84;100.00
49723;BME280;43484;43.608;1.458;2023-01-28T05:08:21;100319.47;;;2.81;100.00
49723;BME280;43484;43.608;1.458;2023-01-28T05:10:47;100319.47;;;2.81;100.00
49723;BME280;43484;43.608;1.458;2023-01-28T05:13:14;100314.31;;;2.79;100.00
49723;BME280;43484;43.608;1.458;2023-01-28T05:15:41;100315.22;;;2.80;100.00
49723;BME280;43484;43.608;1.458;2023-01-28T05:18:07;100313.34;;;2.77;100.00
49723;BME280;43484;43.608;1.458;2023-01-28T05:20:34;100321.03;;;2.79;100.00
49723;BME280;43484;43.608;1.458;2023-01-28T05:23:00;100323.44;;;2.77;100.00
49723;BME280;43484;43.608;1.458;2023-01-28T05:25:27;100323.09;;;2.84;100.00
49723;BME280;43484;43.608;1.458;2023-01-28T05:27:53;100316.25;;;2.83;100.00
49723;BME280;43484;43.608;1.458;2023-01-28T05:30:20;100335.44;;;2.80;100.00
49723;BME280;43484;43.608;1.458;2023-01-28T05:32:47;100332.44;;;2.85;100.00
49723;BME280;43484;43.608;1.458;2023-01-28T05:35:13;100327.97;;;2.81;100.00
49723;BME280;43484;43.608;1.458;2023-01-28T05:37:40;100322.78;;;2.80;100.00
49723;BME280;43484;43.608;1.458;2023-01-28T05:40:08;100320.38;;;2.81;100.00
49723;BME280;43484;43.608;1.458;2023-01-28T05:42:34;100322.78;;;2.80;100.00
49723;BME280;43484;43.608;1.458;2023-01-28T05:45:01;100321.13;;;2.80;100.00
49723;BME280;43484;43.608;1.458;2023-01-28T05:47:27;100322.22;;;2.84;100.00
49723;BME280;43484;43.608;1.458;2023-01-28T05:49:54;100330.16;;;2.77;100.00
49723;BME280;43484;43.608;1.458;2023-01-28T05:52:20;100321.72;;;2.76;100.00
49723;BME280;43484;43.608;1.458;2023-01-28T05:54:47;100323.16;;;2.73;100.00
49723;BME280;43484;43.608;1.458;2023-01-28T05:57:13;100330.47;;;2.81;100.00
49723;BME280;43484;43.608;1.458;2023-01-28T05:59:40;100330.16;;;2.77;100.00
49723;BME280;43484;43.608;1.458;2023-01-28T06:02:06;100330.25;;;2.78;100.00
49723;BME280;43484;43.608;1.458;2023-01-28T06:04:33;100325.09;;;2.77;100.00
49723;BME280;43484;43.608;1.458;2023-01-28T06:06:59;100331.81;;;2.76;100.00
49723;BME280;43484;43.608;1.458;2023-01-28T06:09:26;100333.28;;;2.73;100.00
49723;BME280;43484;43.608;1.458;2023-01-28T06:11:53;100320.72;;;2.74;100.00
49723;BME280;43484;43.608;1.458;2023-01-28T06:14:19;100335.91;;;2.74;100.00
49723;BME280;43484;43.608;1.458;2023-01-28T06:16:46;100333.66;;;2.79;100.00
49723;BME280;43484;43.608;1.458;2023-01-28T06:19:12;100338.72;;;2.79;100.00
49723;BME280;43484;43.608;1.458;2023-01-28T06:21:39;100335.91;;;2.74;100.00
49723;BME280;43484;43.608;1.458;2023-01-28T06:24:05;100335.91;;;2.74;100.00
49723;BME280;43484;43.608;1.458;2023-01-28T06:26:32;100336.31;;;2.80;100.00
49723;BME280;43484;43.608;1.458;2023-01-28T06:28:59;100338.63;;;2.77;100.00
49723;BME280;43484;43.608;1.458;2023-01-28T06:31:25;100335.94;;;2.87;100.00
49723;BME280;43484;43.608;1.458;2023-01-28T06:33:52;100345.66;;;2.81;100.00
49723;BME280;43484;43.608;1.458;2023-01-28T06:36:18;100337.63;;;2.75;100.00
49723;BME280;43484;43.608;1.458;2023-01-28T06:38:45;100342.59;;;2.74;100.00
49723;BME280;43484;43.608;1.458;2023-01-28T06:41:11;100340.66;;;2.70;100.00
49723;BME280;43484;43.608;1.458;2023-01-28T06:43:38;100340.84;;;2.73;100.00
49723;BME280;43484;43.608;1.458;2023-01-28T06:46:04;100333.06;;;2.70;100.00
49723;BME280;43484;43.608;1.458;2023-01-28T06:48:31;100336.25;;;2.67;100.00
49723;BME280;43484;43.608;1.458;2023-01-28T06:50:58;100329.75;;;2.71;100.00
49723;BME280;43484;43.608;1.458;2023-01-28T06:53:24;100334.41;;;2.65;100.00
49723;BME280;43484;43.608;1.458;2023-01-28T06:55:51;100329.66;;;2.69;100.00
49723;BME280;43484;43.608;1.458;2023-01-28T06:58:17;100335.47;;;2.68;100.00
49723;BME280;43484;43.608;1.458;2023-01-28T07:00:44;100331.50;;;2.72;100.00
49723;BME280;43484;43.608;1.458;2023-01-28T07:03:11;100343.84;;;2.67;100.00
49723;BME280;43484;43.608;1.458;2023-01-28T07:05:37;100341.25;;;2.79;100.00
49723;BME280;43484;43.608;1.458;2023-01-28T07:08:04;100352.13;;;2.65;100.00
49723;BME280;43484;43.608;1.458;2023-01-28T07:10:31;100352.13;;;2.65;100.00
49723;BME280;43484;43.608;1.458;2023-01-28T07:12:57;100342.59;;;2.74;100.00
49723;BME280;43484;43.608;1.458;2023-01-28T07:15:24;100357.47;;;2.69;100.00
49723;BME280;43484;43.608;1.458;2023-01-28T07:17:51;100362.44;;;2.68;100.00
49723;BME280;43484;43.608;1.458;2023-01-28T07:20:19;100358.13;;;2.67;100.00
49723;BME280;43484;43.608;1.458;2023-01-28T07:22:46;100368.34;;;2.68;100.00
49723;BME280;43484;43.608;1.458;2023-01-28T07:25:14;100376.06;;;2.70;100.00
49723;BME280;43484;43.608;1.458;2023-01-28T07:27:49;100374.50;;;2.72;100.00
49723;BME280;43484;43.608;1.458;2023-01-28T07:30:16;100376.06;;;2.70;100.00
49723;BME280;43484;43.608;1.458;2023-01-28T07:32:44;100384.19;;;2.66;100.00
49723;BME280;43484;43.608;1.458;2023-01-28T07:35:11;100399.47;;;2.67;100.00
49723;BME280;43484;43.608;1.458;2023-01-28T07:37:38;100404.44;;;2.66;100.00
49723;BME280;43484;43.608;1.458;2023-01-28T07:40:05;100407.97;;;2.68;100.00
49723;BME280;43484;43.608;1.458;2023-01-28T07:42:32;100415.31;;;2.76;100.00
49723;BME280;43484;43.608;1.458;2023-01-28T07:44:59;100415.66;;;2.69;100.00
49723;BME280;43484;43.608;1.458;2023-01-28T07:47:26;100418.19;;;2.69;100.00
49723;BME280;43484;43.608;1.458;2023-01-28T07:49:52;100432.34;;;2.67;100.00
49723;BME280;43484;43.608;1.458;2023-01-28T07:52:19;100431.16;;;2.62;100.00
49723;BME280;43484;43.608;1.458;2023-01-28T07:54:45;100426.88;;;2.61;100.00
49723;BME280;43484;43.608;1.458;2023-01-28T07:57:12;100427.63;;;2.60;100.00
49723;BME280;43484;43.608;1.458;2023-01-28T07:59:38;100420.25;;;2.63;100.00
49723;BME280;43484;43.608;1.458;2023-01-28T08:02:05;100423.34;;;2.71;100.00
49723;BME280;43484;43.608;1.458;2023-01-28T08:04:34;100423.53;;;2.74;100.00
49723;BME280;43484;43.608;1.458;2023-01-28T08:07:01;100426.28;;;2.77;100.00
49723;BME280;43484;43.608;1.458;2023-01-28T08:09:27;100434.53;;;2.74;100.00
49723;BME280;43484;43.608;1.458;2023-01-28T08:11:54;100441.56;;;2.78;100.00
49723;BME280;43484;43.608;1.458;2023-01-28T08:14:21;100435.94;;;2.82;100.00
49723;BME280;43484;43.608;1.458;2023-01-28T08:16:47;100440.00;;;2.80;100.00
49723;BME280;43484;43.608;1.458;2023-01-28T08:19:14;100442.22;;;2.76;100.00
49723;BME280;43484;43.608;1.458;2023-01-28T08:21:41;100443.31;;;2.79;100.00
49723;BME280;43484;43.608;1.458;2023-01-28T08:24:07;100435.63;;;2.78;100.00
49723;BME280;43484;43.608;1.458;2023-01-28T08:26:35;100437.28;;;2.77;100.00
49723;BME280;43484;43.608;1.458;2023-01-28T08:29:01;100437.47;;;2.80;100.00
49723;BME280;43484;43.608;1.458;2023-01-28T08:31:28;100442.00;;;2.84;100.00
49723;BME280;43484;43.608;1.458;2023-01-28T08:33:54;100455.19;;;2.80;100.00
49723;BME280;43484;43.608;1.458;2023-01-28T08:36:21;100447.28;;;2.76;100.00
49723;BME280;43484;43.608;1.458;2023-01-28T08:38:52;100454.56;;;2.71;100.00
49723;BME280;43484;43.608;1.458;2023-01-28T08:41:23;100454.00;;;2.75;100.00
49723;BME280;43484;43.608;1.458;2023-01-28T08:43:49;100452.88;;;2.83;100.00
49723;BME280;43484;43.608;1.458;2023-01-28T08:46:16;100454.84;;;2.87;100.00
49723;BME280;43484;43.608;1.458;2023-01-28T08:48:42;100456.09;;;2.81;100.00
49723;BME280;43484;43.608;1.458;2023-01-28T08:51:09;100463.56;;;2.79;100.00
49723;BME280;43484;43.608;1.458;2023-01-28T08:53:36;100454.06;;;2.88;100.00
49723;BME280;43484;43.608;1.458;2023-01-28T08:56:03;100461.78;;;2.78;100.00
49723;BME280;43484;43.608;1.458;2023-01-28T08:58:29;100469.69;;;2.94;100.00
49723;BME280;43484;43.608;1.458;2023-01-28T09:00:56;100485.53;;;2.80;100.00
49723;BME280;43484;43.608;1.458;2023-01-28T09:03:23;100489.63;;;2.78;100.00
49723;BME280;43484;43.608;1.458;2023-01-28T09:05:49;100492.38;;;2.81;100.00
49723;BME280;43484;43.608;1.458;2023-01-28T09:08:16;100488.97;;;2.81;100.00
49723;BME280;43484;43.608;1.458;2023-01-28T09:10:42;100500.72;;;2.80;100.00
49723;BME280;43484;43.608;1.458;2023-01-28T09:13:12;100504.81;;;2.90;100.00
49723;BME280;43484;43.608;1.458;2023-01-28T09:15:39;100507.06;;;2.98;100.00
49723;BME280;43484;43.608;1.458;2023-01-28T09:18:06;100518.84;;;2.98;100.00
49723;BME280;43484;43.608;1.458;2023-01-28T09:20:33;100527.09;;;2.95;100.00
49723;BME280;43484;43.608;1.458;2023-01-28T09:23:00;100533.03;;;2.96;100.00
49723;BME280;43484;43.608;1.458;2023-01-28T09:25:27;100541.06;;;3.02;100.00
49723;BME280;43484;43.608;1.458;2023-01-28T09:27:54;100540.09;;;3.00;100.00
49723;BME280;43484;43.608;1.458;2023-01-28T09:30:21;100546.72;;;2.86;100.00
49723;BME280;43484;43.608;1.458;2023-01-28T09:32:51;100547.34;;;2.95;100.00
49723;BME280;43484;43.608;1.458;2023-01-28T09:35:19;100549.75;;;3.05;100.00
49723;BME280;43484;43.608;1.458;2023-01-28T09:37:46;100556.13;;;3.00;100.00
49723;BME280;43484;43.608;1.458;2023-01-28T09:40:20;100552.03;;;3.14;100.00
49723;BME280;43484;43.608;1.458;2023-01-28T09:43:17;100552.16;;;3.04;100.00
49723;BME280;43484;43.608;1.458;2023-01-28T09:45:52;100548.31;;;3.09;100.00
49723;BME280;43484;43.608;1.458;2023-01-28T09:48:28;100553.81;;;3.03;100.00
49723;BME280;43484;43.608;1.458;2023-01-28T09:50:59;100560.41;;;3.13;100.00
49723;BME280;43484;43.608;1.458;2023-01-28T09:53:32;100552.59;;;3.21;100.00
49723;BME280;43484;43.608;1.458;2023-01-28T09:56:29;100551.00;;;3.23;100.00
49723;BME280;43484;43.608;1.458;2023-01-28T09:59:18;100554.34;;;3.11;100.00
49723;BME280;43484;43.608;1.458;2023-01-28T10:14:52;100569.19;;;3.29;100.00
49723;BME280;43484;43.608;1.458;2023-01-28T10:17:27;100564.00;;;3.28;100.00
49723;BME280;43484;43.608;1.458;2023-01-28T10:22:49;100568.59;;;3.45;100.00
49723;BME280;43484;43.608;1.458;2023-01-28T10:25:23;100568.16;;;3.39;100.00
49723;BME280;43484;43.608;1.458;2023-01-28T10:27:51;100577.75;;;3.31;100.00
49723;BME280;43484;43.608;1.458;2023-01-28T10:30:18;100580.19;;;3.30;100.00
49723;BME280;43484;43.608;1.458;2023-01-28T10:35:16;100579.91;;;3.38;100.00
49723;BME280;43484;43.608;1.458;2023-01-28T10:37:43;100583.97;;;3.48;100.00
49723;BME280;43484;43.608;1.458;2023-01-28T10:40:17;100597.66;;;3.38;100.00
49723;BME280;43484;43.608;1.458;2023-01-28T10:42:44;100597.19;;;3.44;100.00
49723;BME280;43484;43.608;1.458;2023-01-28T10:45:16;100588.19;;;3.36;100.00
49723;BME280;43484;43.608;1.458;2023-01-28T10:47:49;100586.63;;;3.49;100.00
49723;BME280;43484;43.608;1.458;2023-01-28T10:50:27;100595.31;;;3.53;100.00
49723;BME280;43484;43.608;1.458;2023-01-28T10:52:58;100596.66;;;3.72;100.00
49723;BME280;43484;43.608;1.458;2023-01-28T10:55:30;100610.25;;;3.61;100.00
49723;BME280;43484;43.608;1.458;2023-01-28T10:58:03;100609.78;;;3.67;100.00
49723;BME280;43484;43.608;1.458;2023-01-28T11:00:35;100620.66;;;3.41;100.00
49723;BME280;43484;43.608;1.458;2023-01-28T11:03:02;100624.44;;;3.23;100.00
49723;BME280;43484;43.608;1.458;2023-01-28T11:05:29;100626.69;;;3.43;100.00
49723;BME280;43484;43.608;1.458;2023-01-28T11:10:35;100615.25;;;3.37;100.00
49723;BME280;43484;43.608;1.458;2023-01-28T11:13:05;100615.25;;;3.37;100.00
49723;BME280;43484;43.608;1.458;2023-01-28T11:15:32;100610.66;;;3.43;100.00
49723;BME280;43484;43.608;1.458;2023-01-28T11:18:04;100610.44;;;3.40;100.00
49723;BME280;43484;43.608;1.458;2023-01-28T11:20:37;100616.69;;;3.45;100.00
49723;BME280;43484;43.608;1.458;2023-01-28T11:23:06;100607.78;;;3.38;100.00
49723;BME280;43484;43.608;1.458;2023-01-28T11:25:42;100600.31;;;3.28;100.00
49723;BME280;43484;43.608;1.458;2023-01-28T11:28:17;100593.78;;;3.43;100.00
49723;BME280;43484;43.608;1.458;2023-01-28T11:30:50;100585.47;;;3.33;100.00
49723;BME280;43484;43.608;1.458;2023-01-28T11:33:38;100587.84;;;3.43;100.00
49723;BME280;43484;43.608;1.458;2023-01-28T11:38:49;100579.31;;;3.29;100.00
49723;BME280;43484;43.608;1.458;2023-01-28T11:41:33;100578.84;;;3.23;100.00
49723;BME280;43484;43.608;1.458;2023-01-28T11:44:12;100573.50;;;3.43;100.00
49723;BME280;43484;43.608;1.458;2023-01-28T11:57:24;100557.13;;;3.38;100.00
49723;BME280;43484;43.608;1.458;2023-01-28T12:03:05;100558.03;;;3.63;100.00
49723;BME280;43484;43.608;1.458;2023-01-28T12:11:30;100535.38;;;3.53;100.00
49723;BME280;43484;43.608;1.458;2023-01-28T12:23:25;100530.75;;;3.59;100.00
49723;BME280;43484;43.608;1.458;2023-01-28T12:26:01;100527.44;;;3.60;100.00
49723;BME280;43484;43.608;1.458;2023-01-28T12:28:41;100519.81;;;3.60;100.00
49723;BME280;43484;43.608;1.458;2023-01-28T12:37:58;100514.31;;;3.41;100.00
49723;BME280;43484;43.608;1.458;2023-01-28T12:42:31;100505.44;;;3.35;100.00
49723;BME280;43484;43.608;1.458;2023-01-28T12:45:25;100511.69;;;3.40;100.00
49723;BME280;43484;43.608;1.458;2023-01-28T12:47:57;100509.44;;;3.44;100.00
49723;BME280;43484;43.608;1.458;2023-01-28T12:50:31;100507.53;;;3.78;100.00
49723;BME280;43484;43.608;1.458;2023-01-28T12:53:27;100516.31;;;3.58;100.00
49723;BME280;43484;43.608;1.458;2023-01-28T12:56:02;100515.28;;;3.43;100.00
49723;BME280;43484;43.608;1.458;2023-01-28T12:58:38;100518.13;;;3.48;100.00
49723;BME280;43484;43.608;1.458;2023-01-28T13:01:09;100499.56;;;3.60;100.00
49723;BME280;43484;43.608;1.458;2023-01-28T13:03:42;100501.25;;;3.48;100.00
49723;BME280;43484;43.608;1.458;2023-01-28T13:06:20;100492.75;;;3.59;100.00
49723;BME280;43484;43.608;1.458;2023-01-28T13:08:56;100503.34;;;3.54;100.00
49723;BME280;43484;43.608;1.458;2023-01-28T13:11:32;100507.81;;;3.45;100.00
49723;BME280;43484;43.608;1.458;2023-01-28T13:14:01;100504.53;;;3.34;100.00
49723;BME280;43484;43.608;1.458;2023-01-28T13:16:28;100500.47;;;3.36;100.00
49723;BME280;43484;43.608;1.458;2023-01-28T13:19:07;100498.63;;;3.47;100.00
49723;BME280;43484;43.608;1.458;2023-01-28T13:21:35;100499.31;;;3.44;100.00
49723;BME280;43484;43.608;1.458;2023-01-28T13:26:42;100502.44;;;3.53;100.00
49723;BME280;43484;43.608;1.458;2023-01-28T13:31:44;100508.50;;;3.55;100.00
49723;BME280;43484;43.608;1.458;2023-01-28T13:39:52;100513.22;;;3.62;100.00
49723;BME280;43484;43.608;1.458;2023-01-28T13:42:27;100517.09;;;3.57;100.00
49723;BME280;43484;43.608;1.458;2023-01-28T13:44:55;100524.94;;;3.49;100.00
49723;BME280;43484;43.608;1.458;2023-01-28T13:47:35;100523.72;;;3.31;100.00
49723;BME280;43484;43.608;1.458;2023-01-28T13:50:05;100523.81;;;3.32;100.00
49723;BME280;43484;43.608;1.458;2023-01-28T13:52:43;100533.72;;;3.29;100.00
49723;BME280;43484;43.608;1.458;2023-01-28T14:20:19;100543.03;;;3.42;100.00
49723;BME280;43484;43.608;1.458;2023-01-28T14:22:48;100552.66;;;3.34;100.00
49723;BME280;43484;43.608;1.458;2023-01-28T14:25:24;100551.91;;;3.60;100.00
49723;BME280;43484;43.608;1.458;2023-01-28T14:27:53;100557.13;;;3.38;100.00
49723;BME280;43484;43.608;1.458;2023-01-28T14:30:28;100551.25;;;3.26;100.00
49723;BME280;43484;43.608;1.458;2023-01-28T14:33:00;100564.81;;;3.51;100.00
49723;BME280;43484;43.608;1.458;2023-01-28T14:35:32;100560.47;;;3.26;100.00
49723;BME280;43484;43.608;1.458;2023-01-28T14:38:06;100565.97;;;3.32;100.00
49723;BME280;43484;43.608;1.458;2023-01-28T14:40:37;100562.69;;;3.33;100.00
49723;BME280;43484;43.608;1.458;2023-01-28T14:43:13;100573.03;;;3.24;100.00
49723;BME280;43484;43.608;1.458;2023-01-28T14:54:06;100570.03;;;3.41;100.00
49723;BME280;43484;43.608;1.458;2023-01-28T14:59:25;100575.56;;;3.24;100.00
49723;BME280;43484;43.608;1.458;2023-01-28T15:01:58;100584.72;;;3.22;100.00
49723;BME280;43484;43.608;1.458;2023-01-28T15:04:29;100586.34;;;3.22;100.00
49723;BME280;43484;43.608;1.458;2023-01-28T15:07:01;100586.75;;;3.39;100.00
49723;BME280;43484;43.608;1.458;2023-01-28T15:09:40;100583.38;;;3.27;100.00
49723;BME280;43484;43.608;1.458;2023-01-28T15:12:07;100584.38;;;3.29;100.00
49723;BME280;43484;43.608;1.458;2023-01-28T15:14:34;100580.94;;;3.29;100.00
49723;BME280;43484;43.608;1.458;2023-01-28T15:17:02;100591.16;;;3.30;100.00
49723;BME280;43484;43.608;1.458;2023-01-28T15:19:31;100586.31;;;3.33;100.00